createdAt,value
2023-12-30T00:01:43.695Z,0
2023-12-30T00:04:28.346Z,0
2023-12-30T00:07:12.959Z,0
2023-12-30T00:09:57.000Z,0
2023-12-30T00:12:42.246Z,0
2023-12-30T00:15:26.000Z,0
2023-12-30T00:18:11.000Z,0
2023-12-30T00:20:56.158Z,0
2023-12-30T00:23:40.813Z,0
2023-12-30T00:24:58.000Z,0
2023-12-30T00:26:25.000Z,0
2023-12-30T00:29:09.000Z,0
2023-12-30T00:31:54.000Z,0
2023-12-30T00:34:39.000Z,0
2023-12-30T00:37:24.036Z,0
2023-12-30T00:40:08.642Z,0
2023-12-30T00:42:53.289Z,0
2023-12-30T00:45:37.937Z,0
2023-12-30T00:48:22.572Z,0
2023-12-30T00:51:06.000Z,0
2023-12-30T00:52:25.062Z,0
2023-12-30T00:53:51.867Z,0
2023-12-30T00:56:36.000Z,0
2023-12-30T00:59:21.144Z,0
2023-12-30T01:02:05.000Z,0
2023-12-30T01:04:50.427Z,0
2023-12-30T01:07:34.000Z,0
2023-12-30T01:10:19.713Z,0
2023-12-30T01:13:04.000Z,0
2023-12-30T01:15:48.000Z,0
2023-12-30T01:18:33.634Z,0
2023-12-30T01:19:51.482Z,0
2023-12-30T01:21:18.273Z,0
2023-12-30T01:24:02.916Z,0
2023-12-30T01:26:47.000Z,0
2023-12-30T01:29:32.192Z,0
2023-12-30T01:32:16.836Z,0
2023-12-30T01:35:01.000Z,0
2023-12-30T01:37:45.000Z,0
2023-12-30T01:40:30.000Z,0
2023-12-30T01:43:15.407Z,0
2023-12-30T01:45:59.000Z,0
2023-12-30T01:47:17.925Z,0
2023-12-30T01:48:44.000Z,0
2023-12-30T01:51:29.000Z,0
2023-12-30T01:54:13.000Z,0
2023-12-30T01:56:58.608Z,0
2023-12-30T01:59:43.255Z,0
2023-12-30T02:02:27.000Z,0
2023-12-30T02:05:12.536Z,0
2023-12-30T02:07:57.176Z,0
2023-12-30T02:10:41.816Z,0
2023-12-30T02:14:44.000Z,0
2023-12-30T02:16:10.000Z,0
2023-12-30T02:18:55.750Z,0
2023-12-30T02:21:40.000Z,0
2023-12-30T02:24:25.031Z,0
2023-12-30T02:27:09.662Z,0
2023-12-30T02:29:54.000Z,0
2023-12-30T02:32:38.942Z,0
2023-12-30T02:35:23.597Z,0
2023-12-30T02:38:08.230Z,0
2023-12-30T02:40:52.868Z,0
2023-12-30T02:42:10.000Z,0
2023-12-30T02:43:37.515Z,0
2023-12-30T02:46:22.155Z,0
2023-12-30T02:49:06.000Z,0
2023-12-30T02:51:51.000Z,0
2023-12-30T02:54:35.000Z,0
2023-12-30T03:00:05.361Z,0
2023-12-30T03:02:50.021Z,0
2023-12-30T03:05:34.658Z,0
2023-12-30T03:08:19.289Z,0
2023-12-30T03:09:36.000Z,0
2023-12-30T03:11:03.946Z,0
2023-12-30T03:13:48.592Z,0
2023-12-30T03:16:33.207Z,0
2023-12-30T03:19:17.869Z,0
2023-12-30T03:22:02.000Z,0
2023-12-30T03:24:46.000Z,0
2023-12-30T03:27:31.765Z,0
2023-12-30T03:30:16.413Z,0
2023-12-30T03:33:00.000Z,0
2023-12-30T03:35:45.692Z,0
2023-12-30T03:37:03.636Z,0
2023-12-30T03:38:30.333Z,0
2023-12-30T03:41:14.000Z,0
2023-12-30T03:43:59.000Z,0
2023-12-30T03:46:44.000Z,0
2023-12-30T03:49:28.000Z,0
2023-12-30T03:52:13.539Z,0
2023-12-30T03:54:58.177Z,0
2023-12-30T03:57:42.000Z,0
2023-12-30T04:00:27.000Z,0
2023-12-30T04:03:11.000Z,0
2023-12-30T04:04:30.089Z,0
2023-12-30T04:05:56.757Z,0
2023-12-30T04:08:41.386Z,0
2023-12-30T04:11:26.043Z,0
2023-12-30T04:14:10.674Z,0
2023-12-30T04:16:55.304Z,0
2023-12-30T04:19:39.000Z,0
2023-12-30T04:22:24.587Z,0
2023-12-30T04:25:09.236Z,0
2023-12-30T04:27:53.000Z,0
2023-12-30T04:30:38.000Z,0
2023-12-30T04:31:56.000Z,0
2023-12-30T04:33:22.000Z,0
2023-12-30T04:36:07.812Z,0
2023-12-30T04:38:52.437Z,0
2023-12-30T04:41:37.093Z,0
2023-12-30T04:44:21.000Z,0
2023-12-30T04:47:06.000Z,0
2023-12-30T04:49:50.000Z,0
2023-12-30T04:52:35.654Z,0
2023-12-30T04:55:20.000Z,0
2023-12-30T04:58:04.000Z,0
2023-12-30T04:59:22.000Z,0
2023-12-30T05:00:49.565Z,0
2023-12-30T05:03:33.000Z,0
2023-12-30T05:06:18.000Z,0
2023-12-30T05:09:03.515Z,0
2023-12-30T05:11:47.000Z,0
2023-12-30T05:14:32.000Z,0
2023-12-30T05:17:17.414Z,0
2023-12-30T05:20:02.048Z,0
2023-12-30T05:22:46.712Z,0
2023-12-30T05:25:31.350Z,0
2023-12-30T05:26:49.000Z,0
2023-12-30T05:28:15.000Z,0
2023-12-30T05:31:00.000Z,0
2023-12-30T05:33:45.000Z,0
2023-12-30T05:36:29.904Z,0
2023-12-30T05:39:14.000Z,0
2023-12-30T05:41:59.198Z,0
2023-12-30T05:44:43.000Z,0
2023-12-30T05:47:28.632Z,0
2023-12-30T05:50:29.490Z,0
2023-12-30T05:53:13.000Z,0
2023-12-30T05:54:31.836Z,0
2023-12-30T05:55:58.000Z,0
2023-12-30T05:58:43.000Z,0
2023-12-30T06:01:27.000Z,0
2023-12-30T06:04:12.000Z,0
2023-12-30T06:06:57.000Z,0
2023-12-30T06:09:41.000Z,0
2023-12-30T06:12:26.000Z,0
2023-12-30T06:15:11.000Z,0
2023-12-30T06:17:55.898Z,0
2023-12-30T06:20:40.543Z,0
2023-12-30T06:21:58.265Z,0
2023-12-30T06:23:24.000Z,0
2023-12-30T06:26:09.000Z,0
2023-12-30T06:28:54.454Z,0
2023-12-30T06:31:38.000Z,0
2023-12-30T06:34:23.735Z,0
2023-12-30T06:37:08.389Z,0
2023-12-30T06:39:53.020Z,0
2023-12-30T06:42:37.000Z,0
2023-12-30T06:48:06.949Z,0
2023-12-30T06:49:24.000Z,0
2023-12-30T06:50:51.000Z,0
2023-12-30T06:56:20.876Z,0
2023-12-30T06:59:05.505Z,0
2023-12-30T07:01:49.000Z,4
2023-12-30T07:04:34.000Z,4
2023-12-30T07:07:19.000Z,4
2023-12-30T07:10:04.078Z,8
2023-12-30T07:12:48.000Z,12
2023-12-30T07:15:33.000Z,20
2023-12-30T07:16:51.126Z,24
2023-12-30T07:18:17.000Z,28
2023-12-30T07:21:02.651Z,40
2023-12-30T07:23:47.282Z,60
2023-12-30T07:26:31.000Z,72
2023-12-30T07:29:16.000Z,96
2023-12-30T07:32:00.000Z,120
2023-12-30T07:34:45.000Z,148
2023-12-30T07:37:30.000Z,176
2023-12-30T07:40:14.000Z,208
2023-12-30T07:42:59.000Z,236
2023-12-30T07:44:17.000Z,280
2023-12-30T07:48:28.000Z,352
2023-12-30T07:51:13.000Z,408
2023-12-30T07:53:58.000Z,508
2023-12-30T07:56:42.992Z,632
2023-12-30T07:59:27.000Z,804
2023-12-30T08:02:12.000Z,1032
2023-12-30T08:04:56.906Z,1172
2023-12-30T08:07:41.529Z,1344
2023-12-30T08:10:25.000Z,1496
2023-12-30T08:11:43.000Z,1588
2023-12-30T08:13:10.000Z,1592
2023-12-30T08:15:55.000Z,1532
2023-12-30T08:18:40.114Z,1620
2023-12-30T08:21:24.000Z,1672
2023-12-30T08:24:09.401Z,1872
2023-12-30T08:26:54.029Z,1936
2023-12-30T08:29:38.673Z,2028
2023-12-30T08:32:23.000Z,2096
2023-12-30T08:35:07.000Z,2116
2023-12-30T08:37:52.000Z,1880
2023-12-30T08:39:10.430Z,1772
2023-12-30T08:40:37.000Z,1760
2023-12-30T08:43:21.000Z,1848
2023-12-30T08:46:06.526Z,1936
2023-12-30T08:48:50.000Z,2192
2023-12-30T08:51:35.000Z,2608
2023-12-30T08:54:20.000Z,2732
2023-12-30T08:57:04.000Z,2912
2023-12-30T08:59:49.000Z,3348
2023-12-30T09:02:34.000Z,3952
2023-12-30T09:05:18.000Z,4084
2023-12-30T09:06:36.844Z,4420
2023-12-30T09:10:48.000Z,5016
2023-12-30T09:13:32.000Z,5208
2023-12-30T09:16:17.000Z,5368
2023-12-30T09:19:01.000Z,6176
2023-12-30T09:21:46.000Z,6208
2023-12-30T09:24:31.496Z,5924
2023-12-30T09:30:00.000Z,6492
2023-12-30T09:32:45.439Z,7252
2023-12-30T09:34:03.000Z,13064
2023-12-30T09:35:30.071Z,14672
2023-12-30T09:38:14.000Z,10772
2023-12-30T09:40:59.000Z,16192
2023-12-30T09:43:43.000Z,20928
2023-12-30T09:46:28.637Z,20096
2023-12-30T09:49:13.296Z,9020
2023-12-30T09:51:57.911Z,7548
2023-12-30T09:54:42.544Z,9800
2023-12-30T09:57:27.187Z,9376
2023-12-30T10:00:11.000Z,16544
2023-12-30T10:01:29.000Z,12916
2023-12-30T10:02:56.000Z,10716
2023-12-30T10:05:40.000Z,15424
2023-12-30T10:11:10.000Z,5012
2023-12-30T10:13:54.000Z,6060
2023-12-30T10:16:39.000Z,6568
2023-12-30T10:19:24.000Z,10548
2023-12-30T10:22:08.000Z,10380
2023-12-30T10:27:38.000Z,7832
2023-12-30T10:28:55.000Z,5392
2023-12-30T10:30:22.000Z,4860
2023-12-30T10:33:07.532Z,4692
2023-12-30T10:35:51.000Z,3160
2023-12-30T10:38:36.818Z,4588
2023-12-30T10:41:21.464Z,3608
2023-12-30T10:44:05.000Z,2128
2023-12-30T10:46:50.730Z,2888
2023-12-30T10:49:35.379Z,3736
2023-12-30T10:52:20.012Z,4156
2023-12-30T10:55:04.000Z,6180
2023-12-30T10:56:22.000Z,4456
2023-12-30T10:57:49.000Z,4488
2023-12-30T11:00:33.000Z,4280
2023-12-30T11:03:18.000Z,5024
2023-12-30T11:06:02.000Z,4592
2023-12-30T11:08:47.000Z,5756
2023-12-30T11:11:32.525Z,7572
2023-12-30T11:14:17.142Z,7160
2023-12-30T11:17:01.000Z,6168
2023-12-30T11:19:46.427Z,4308
2023-12-30T11:22:30.000Z,4388
2023-12-30T11:23:48.000Z,3444
2023-12-30T11:25:15.000Z,3324
2023-12-30T11:28:00.000Z,3036
2023-12-30T11:30:44.000Z,2460
2023-12-30T11:33:29.000Z,3484
2023-12-30T11:36:14.000Z,3812
2023-12-30T11:38:58.000Z,2972
2023-12-30T11:41:43.551Z,2780
2023-12-30T11:44:27.000Z,2288
2023-12-30T11:47:12.000Z,2528
2023-12-30T11:49:57.497Z,2640
2023-12-30T11:51:15.000Z,3048
2023-12-30T11:52:41.000Z,2892
2023-12-30T11:55:26.000Z,2460
2023-12-30T11:58:11.000Z,2260
2023-12-30T12:00:56.041Z,2500
2023-12-30T12:03:40.000Z,2920
2023-12-30T12:06:25.000Z,2812
2023-12-30T12:09:09.962Z,2544
2023-12-30T12:11:54.610Z,2492
2023-12-30T12:14:39.250Z,2316
2023-12-30T12:17:23.000Z,2240
2023-12-30T12:18:41.000Z,2204
2023-12-30T12:20:08.000Z,2240
2023-12-30T12:22:52.000Z,2316
2023-12-30T12:25:37.812Z,2708
2023-12-30T12:28:22.000Z,3340
2023-12-30T12:31:07.095Z,3940
2023-12-30T12:33:51.769Z,4060
2023-12-30T12:36:36.389Z,3508
2023-12-30T12:39:20.000Z,3920
2023-12-30T12:42:05.000Z,2904
2023-12-30T12:44:50.313Z,3268
2023-12-30T12:46:08.000Z,3900
2023-12-30T12:47:34.942Z,3460
2023-12-30T12:50:19.584Z,2996
2023-12-30T12:53:03.000Z,3100
2023-12-30T12:55:48.869Z,2616
2023-12-30T12:58:33.514Z,2212
2023-12-30T13:01:17.000Z,2300
2023-12-30T13:04:02.794Z,2484
2023-12-30T13:06:47.427Z,2552
2023-12-30T13:09:31.000Z,2452
2023-12-30T13:12:16.000Z,2636
2023-12-30T13:13:34.708Z,2592
2023-12-30T13:15:01.352Z,2512
2023-12-30T13:17:45.000Z,2296
2023-12-30T13:20:30.630Z,2220
2023-12-30T13:23:15.277Z,2104
2023-12-30T13:25:59.000Z,1696
2023-12-30T13:28:44.565Z,1516
2023-12-30T13:31:28.000Z,1636
2023-12-30T13:34:13.000Z,1232
2023-12-30T13:36:58.484Z,1236
2023-12-30T13:39:43.119Z,1016
2023-12-30T13:41:01.132Z,836
2023-12-30T13:42:27.000Z,632
2023-12-30T13:45:12.000Z,504
2023-12-30T13:47:56.000Z,524
2023-12-30T13:50:41.000Z,652
2023-12-30T13:53:26.324Z,520
2023-12-30T13:56:10.964Z,424
2023-12-30T13:58:55.000Z,524
2023-12-30T14:01:40.249Z,596
2023-12-30T14:04:24.881Z,572
2023-12-30T14:07:09.000Z,524
2023-12-30T14:08:27.723Z,600
2023-12-30T14:09:54.181Z,532
2023-12-30T14:12:38.809Z,492
2023-12-30T14:15:23.449Z,616
2023-12-30T14:18:08.091Z,624
2023-12-30T14:20:52.731Z,820
2023-12-30T14:23:37.000Z,716
2023-12-30T14:26:21.000Z,780
2023-12-30T14:29:06.657Z,732
2023-12-30T14:31:51.296Z,688
2023-12-30T14:34:35.000Z,624
2023-12-30T14:37:20.580Z,540
2023-12-30T14:38:38.303Z,548
2023-12-30T14:40:04.000Z,552
2023-12-30T14:45:34.000Z,608
2023-12-30T14:48:19.148Z,636
2023-12-30T14:51:03.797Z,692
2023-12-30T14:53:48.000Z,628
2023-12-30T14:56:32.000Z,588
2023-12-30T14:59:17.000Z,524
2023-12-30T15:02:02.000Z,456
2023-12-30T15:04:46.000Z,388
2023-12-30T15:06:04.000Z,324
2023-12-30T15:07:31.000Z,304
2023-12-30T15:10:16.000Z,280
2023-12-30T15:13:00.000Z,236
2023-12-30T15:15:45.570Z,184
2023-12-30T15:18:30.203Z,132
2023-12-30T15:21:14.843Z,80
2023-12-30T15:23:59.000Z,68
2023-12-30T15:26:44.120Z,72
2023-12-30T15:29:28.772Z,60
2023-12-30T15:32:13.000Z,48
2023-12-30T15:33:30.000Z,36
2023-12-30T15:34:58.042Z,36
2023-12-30T15:37:42.000Z,32
2023-12-30T15:40:27.000Z,20
2023-12-30T15:43:11.000Z,16
2023-12-30T15:45:56.000Z,12
2023-12-30T15:48:41.264Z,8
2023-12-30T15:51:25.905Z,8
2023-12-30T15:54:10.000Z,4
2023-12-30T15:56:54.000Z,4
2023-12-30T15:59:39.000Z,0
2023-12-30T16:00:57.000Z,0
2023-12-30T16:02:24.000Z,0
2023-12-30T16:05:08.000Z,0
2023-12-30T16:07:53.000Z,0
2023-12-30T16:10:38.000Z,0
2023-12-30T16:13:23.040Z,0
2023-12-30T16:16:07.671Z,0
2023-12-30T16:18:52.000Z,0
2023-12-30T16:21:36.000Z,0
2023-12-30T16:24:21.589Z,0
2023-12-30T16:27:06.238Z,0
2023-12-30T16:28:23.000Z,0
2023-12-30T16:29:50.000Z,0
2023-12-30T16:32:35.000Z,0
2023-12-30T16:35:19.000Z,0
2023-12-30T16:38:04.000Z,0
2023-12-30T16:40:49.453Z,0
2023-12-30T16:43:33.000Z,0
2023-12-30T16:46:18.730Z,0
2023-12-30T16:49:03.000Z,0
2023-12-30T16:54:32.000Z,0
2023-12-30T16:55:50.461Z,0
2023-12-30T16:57:17.000Z,0
2023-12-30T17:00:01.938Z,0
2023-12-30T17:02:46.000Z,0
2023-12-30T17:05:31.217Z,0
2023-12-30T17:08:15.000Z,0
2023-12-30T17:11:00.521Z,0
2023-12-30T17:13:45.141Z,0
2023-12-30T17:16:29.786Z,0
2023-12-30T17:19:14.438Z,0
2023-12-30T17:21:59.060Z,0
2023-12-30T17:23:16.000Z,0
2023-12-30T17:24:43.000Z,0
2023-12-30T17:27:28.351Z,0
2023-12-30T17:32:57.000Z,0
2023-12-30T17:35:42.288Z,0
2023-12-30T17:38:26.941Z,0
2023-12-30T17:41:11.000Z,0
2023-12-30T17:46:40.000Z,0
2023-12-30T17:49:25.000Z,0
2023-12-30T17:50:43.000Z,0
2023-12-30T17:52:10.150Z,0
2023-12-30T17:54:54.764Z,0
2023-12-30T17:57:39.416Z,0
2023-12-30T18:00:24.068Z,0
2023-12-30T18:03:08.699Z,0
2023-12-30T18:05:53.339Z,0
2023-12-30T18:08:37.975Z,0
2023-12-30T18:11:22.618Z,0
2023-12-30T18:14:07.262Z,0
2023-12-30T18:16:51.922Z,0
2023-12-30T18:18:09.765Z,0
2023-12-30T18:19:36.000Z,0
2023-12-30T18:22:20.000Z,0
2023-12-30T18:25:05.000Z,0
2023-12-30T18:27:50.476Z,0
2023-12-30T18:30:35.116Z,0
2023-12-30T18:33:19.000Z,0
2023-12-30T18:36:04.402Z,0
2023-12-30T18:38:48.000Z,0
2023-12-30T18:41:33.000Z,0
2023-12-30T18:44:18.340Z,0
2023-12-30T18:45:36.195Z,0
2023-12-30T18:47:02.000Z,0
2023-12-30T18:49:47.605Z,0
2023-12-30T18:52:32.253Z,0
2023-12-30T18:55:16.885Z,0
2023-12-30T18:58:01.534Z,0
2023-12-30T19:00:46.176Z,0
2023-12-30T19:03:30.809Z,0
2023-12-30T19:06:15.461Z,0
2023-12-30T19:09:00.095Z,0
2023-12-30T19:11:44.000Z,0
2023-12-30T19:13:02.625Z,0
2023-12-30T19:14:29.375Z,0
2023-12-30T19:17:14.014Z,0
2023-12-30T19:19:58.000Z,0
2023-12-30T19:22:43.000Z,0
2023-12-30T19:25:27.940Z,0
2023-12-30T19:28:12.577Z,0
2023-12-30T19:30:57.246Z,0
2023-12-30T19:33:41.876Z,0
2023-12-30T19:36:26.506Z,0
2023-12-30T19:39:11.142Z,0
2023-12-30T19:40:28.000Z,0
2023-12-30T19:41:55.792Z,0
2023-12-30T19:44:40.000Z,0
2023-12-30T19:47:24.000Z,0
2023-12-30T19:50:09.711Z,0
2023-12-30T19:52:54.000Z,0
2023-12-30T19:55:38.000Z,0
2023-12-30T19:58:23.000Z,0
2023-12-30T20:01:08.274Z,0
2023-12-30T20:03:52.000Z,0
2023-12-30T20:06:37.558Z,0
2023-12-30T20:07:55.000Z,0
2023-12-30T20:09:21.000Z,0
2023-12-30T20:12:06.000Z,0
2023-12-30T20:14:51.000Z,0
2023-12-30T20:17:35.000Z,0
2023-12-30T20:20:20.000Z,0
2023-12-30T20:23:05.404Z,0
2023-12-30T20:25:49.000Z,0
2023-12-30T20:28:34.000Z,0
2023-12-30T20:31:19.334Z,0
2023-12-30T20:34:03.000Z,0
2023-12-30T20:35:21.923Z,0
2023-12-30T20:36:48.611Z,0
2023-12-30T20:39:33.259Z,0
2023-12-30T20:42:17.000Z,0
2023-12-30T20:45:02.527Z,0
2023-12-30T20:47:46.000Z,0
2023-12-30T20:50:31.000Z,0
2023-12-30T20:53:16.000Z,0
2023-12-30T20:56:01.096Z,0
2023-12-30T20:58:45.000Z,0
2023-12-30T21:01:30.000Z,0
2023-12-30T21:02:48.334Z,0
2023-12-30T21:04:15.026Z,0
2023-12-30T21:06:59.662Z,0
2023-12-30T21:09:44.000Z,0
2023-12-30T21:12:28.953Z,0
2023-12-30T21:15:13.593Z,0
2023-12-30T21:17:58.235Z,0
2023-12-30T21:20:42.871Z,0
2023-12-30T21:23:27.000Z,0
2023-12-30T21:26:11.000Z,0
2023-12-30T21:28:56.788Z,0
2023-12-30T21:30:14.788Z,0
2023-12-30T21:31:41.000Z,0
2023-12-30T21:34:25.000Z,0
2023-12-30T21:37:10.720Z,0
2023-12-30T21:39:55.353Z,0
2023-12-30T21:42:39.999Z,0
2023-12-30T21:45:24.000Z,0
2023-12-30T21:48:09.000Z,0
2023-12-30T21:50:53.000Z,0
2023-12-30T21:53:38.567Z,0
2023-12-30T21:56:23.211Z,0
2023-12-30T21:57:40.000Z,0
2023-12-30T21:59:07.851Z,0
2023-12-30T22:01:52.000Z,0
2023-12-30T22:04:37.129Z,0
2023-12-30T22:07:21.000Z,0
2023-12-30T22:10:06.410Z,0
2023-12-30T22:12:51.055Z,0
2023-12-30T22:15:35.685Z,0
2023-12-30T22:18:20.000Z,0
2023-12-30T22:21:04.000Z,0
2023-12-30T22:23:49.000Z,0
2023-12-30T22:25:07.000Z,0
2023-12-30T22:26:34.000Z,0
2023-12-30T22:29:18.899Z,0
2023-12-30T22:32:03.537Z,0
2023-12-30T22:34:48.180Z,0
2023-12-30T22:37:32.000Z,0
2023-12-30T22:40:33.000Z,0
2023-12-30T22:43:18.000Z,0
2023-12-30T22:46:02.000Z,0
2023-12-30T22:48:47.764Z,0
2023-12-30T22:51:32.415Z,0
2023-12-30T22:52:49.000Z,0
2023-12-30T22:54:17.044Z,0
2023-12-30T22:57:01.685Z,0
2023-12-30T22:59:46.334Z,0
2023-12-30T23:02:30.976Z,0
2023-12-30T23:05:15.000Z,0
2023-12-30T23:08:00.255Z,0
2023-12-30T23:10:44.889Z,0
2023-12-30T23:13:29.000Z,0
2023-12-30T23:16:14.182Z,0
2023-12-30T23:18:58.000Z,0
2023-12-30T23:20:16.000Z,0
2023-12-30T23:21:43.000Z,0
2023-12-30T23:24:28.103Z,0
2023-12-30T23:27:12.736Z,0
2023-12-30T23:29:57.000Z,0
2023-12-30T23:32:42.036Z,0
2023-12-30T23:35:26.671Z,0
2023-12-30T23:38:11.000Z,0
2023-12-30T23:40:55.000Z,0
2023-12-30T23:43:40.000Z,0
2023-12-30T23:46:25.227Z,0
2023-12-30T23:47:42.000Z,0
2023-12-30T23:49:09.869Z,0
2023-12-30T23:51:54.000Z,0
2023-12-30T23:54:39.158Z,0
2023-12-30T23:57:23.000Z,0
